sensor_id;sensor_type;location;lat;lon;timestamp;P1;durP1;ratioP1;P2;durP2;ratioP2
20170;SDS011;10245;51.344;6.620;2022-12-18T00:01:48;26.40;;;12.53;;
20170;SDS011;10245;51.344;6.620;2022-12-18T00:04:14;19.83;;;12.20;;
20170;SDS011;10245;51.344;6.620;2022-12-18T00:06:43;26.53;;;12.90;;
20170;SDS011;10245;51.344;6.620;2022-12-18T00:09:08;22.37;;;12.03;;
20170;SDS011;10245;51.344;6.620;2022-12-18T00:11:31;26.63;;;13.10;;
20170;SDS011;10245;51.344;6.620;2022-12-18T00:13:56;21.37;;;11.60;;
20170;SDS011;10245;51.344;6.620;2022-12-18T00:16:23;24.03;;;12.70;;
20170;SDS011;10245;51.344;6.620;2022-12-18T00:18:48;22.43;;;11.57;;
20170;SDS011;10245;51.344;6.620;2022-12-18T00:21:13;24.77;;;11.83;;
20170;SDS011;10245;51.344;6.620;2022-12-18T00:23:37;21.77;;;11.30;;
20170;SDS011;10245;51.344;6.620;2022-12-18T00:26:03;22.07;;;11.50;;
20170;SDS011;10245;51.344;6.620;2022-12-18T00:28:30;21.87;;;11.57;;
20170;SDS011;10245;51.344;6.620;2022-12-18T00:30:59;20.40;;;11.37;;
20170;SDS011;10245;51.344;6.620;2022-12-18T00:33:25;21.70;;;10.70;;
20170;SDS011;10245;51.344;6.620;2022-12-18T00:35:48;22.07;;;11.77;;
20170;SDS011;10245;51.344;6.620;2022-12-18T00:38:11;19.23;;;10.50;;
20170;SDS011;10245;51.344;6.620;2022-12-18T00:40:34;20.10;;;10.97;;
20170;SDS011;10245;51.344;6.620;2022-12-18T00:42:58;20.30;;;11.13;;
20170;SDS011;10245;51.344;6.620;2022-12-18T00:45:29;20.60;;;10.40;;
20170;SDS011;10245;51.344;6.620;2022-12-18T00:47:53;19.30;;;10.80;;
20170;SDS011;10245;51.344;6.620;2022-12-18T00:50:19;20.10;;;11.27;;
20170;SDS011;10245;51.344;6.620;2022-12-18T00:52:42;18.30;;;10.47;;
20170;SDS011;10245;51.344;6.620;2022-12-18T00:55:06;18.20;;;10.07;;
20170;SDS011;10245;51.344;6.620;2022-12-18T00:57:30;21.10;;;11.13;;
20170;SDS011;10245;51.344;6.620;2022-12-18T00:59:53;22.20;;;11.40;;
20170;SDS011;10245;51.344;6.620;2022-12-18T01:02:17;17.90;;;10.60;;
20170;SDS011;10245;51.344;6.620;2022-12-18T01:04:40;21.80;;;11.10;;
20170;SDS011;10245;51.344;6.620;2022-12-18T01:07:05;21.80;;;11.37;;
20170;SDS011;10245;51.344;6.620;2022-12-18T01:09:29;22.40;;;11.97;;
20170;SDS011;10245;51.344;6.620;2022-12-18T01:11:53;22.40;;;11.47;;
20170;SDS011;10245;51.344;6.620;2022-12-18T01:14:16;20.57;;;10.90;;
20170;SDS011;10245;51.344;6.620;2022-12-18T01:16:40;21.33;;;11.10;;
20170;SDS011;10245;51.344;6.620;2022-12-18T01:19:04;21.23;;;10.90;;
20170;SDS011;10245;51.344;6.620;2022-12-18T01:21:27;18.20;;;10.53;;
20170;SDS011;10245;51.344;6.620;2022-12-18T01:23:52;18.90;;;10.27;;
20170;SDS011;10245;51.344;6.620;2022-12-18T01:26:17;18.70;;;10.67;;
20170;SDS011;10245;51.344;6.620;2022-12-18T01:28:41;20.63;;;10.50;;
20170;SDS011;10245;51.344;6.620;2022-12-18T01:31:10;26.10;;;10.90;;
20170;SDS011;10245;51.344;6.620;2022-12-18T01:33:35;17.77;;;10.23;;
20170;SDS011;10245;51.344;6.620;2022-12-18T01:36:00;19.83;;;10.93;;
20170;SDS011;10245;51.344;6.620;2022-12-18T01:38:23;22.60;;;10.53;;
20170;SDS011;10245;51.344;6.620;2022-12-18T01:40:48;20.10;;;10.77;;
20170;SDS011;10245;51.344;6.620;2022-12-18T01:43:11;17.90;;;10.50;;
20170;SDS011;10245;51.344;6.620;2022-12-18T01:45:35;20.07;;;10.80;;
20170;SDS011;10245;51.344;6.620;2022-12-18T01:47:59;18.63;;;10.70;;
20170;SDS011;10245;51.344;6.620;2022-12-18T01:50:27;20.10;;;11.33;;
20170;SDS011;10245;51.344;6.620;2022-12-18T01:52:55;18.83;;;10.77;;
20170;SDS011;10245;51.344;6.620;2022-12-18T01:55:23;18.47;;;10.43;;
20170;SDS011;10245;51.344;6.620;2022-12-18T01:57:50;20.37;;;10.70;;
20170;SDS011;10245;51.344;6.620;2022-12-18T02:00:18;18.17;;;9.83;;
20170;SDS011;10245;51.344;6.620;2022-12-18T02:02:45;19.57;;;10.27;;
20170;SDS011;10245;51.344;6.620;2022-12-18T02:05:10;20.30;;;10.90;;
20170;SDS011;10245;51.344;6.620;2022-12-18T02:07:40;22.77;;;11.13;;
20170;SDS011;10245;51.344;6.620;2022-12-18T02:10:15;19.63;;;11.07;;
20170;SDS011;10245;51.344;6.620;2022-12-18T02:12:48;18.10;;;10.80;;
20170;SDS011;10245;51.344;6.620;2022-12-18T02:15:18;19.27;;;10.73;;
20170;SDS011;10245;51.344;6.620;2022-12-18T02:17:48;20.93;;;11.30;;
20170;SDS011;10245;51.344;6.620;2022-12-18T02:20:20;18.47;;;11.10;;
20170;SDS011;10245;51.344;6.620;2022-12-18T02:22:51;17.43;;;10.40;;
20170;SDS011;10245;51.344;6.620;2022-12-18T02:25:38;22.70;;;10.87;;
20170;SDS011;10245;51.344;6.620;2022-12-18T02:28:16;23.40;;;11.50;;
20170;SDS011;10245;51.344;6.620;2022-12-18T02:30:45;17.70;;;10.93;;
20170;SDS011;10245;51.344;6.620;2022-12-18T02:33:11;19.47;;;10.37;;
20170;SDS011;10245;51.344;6.620;2022-12-18T02:35:38;18.87;;;10.83;;
20170;SDS011;10245;51.344;6.620;2022-12-18T02:38:04;22.73;;;11.73;;
20170;SDS011;10245;51.344;6.620;2022-12-18T02:40:29;19.17;;;11.03;;
20170;SDS011;10245;51.344;6.620;2022-12-18T02:42:55;20.57;;;10.13;;
20170;SDS011;10245;51.344;6.620;2022-12-18T02:45:29;17.60;;;10.37;;
20170;SDS011;10245;51.344;6.620;2022-12-18T02:47:53;18.30;;;10.43;;
20170;SDS011;10245;51.344;6.620;2022-12-18T02:50:18;19.40;;;11.30;;
20170;SDS011;10245;51.344;6.620;2022-12-18T02:52:54;20.87;;;10.97;;
20170;SDS011;10245;51.344;6.620;2022-12-18T02:55:28;20.00;;;11.00;;
20170;SDS011;10245;51.344;6.620;2022-12-18T02:58:05;20.33;;;11.67;;
20170;SDS011;10245;51.344;6.620;2022-12-18T03:00:37;20.70;;;10.87;;
20170;SDS011;10245;51.344;6.620;2022-12-18T03:03:06;21.47;;;11.20;;
20170;SDS011;10245;51.344;6.620;2022-12-18T03:05:36;18.27;;;10.03;;
20170;SDS011;10245;51.344;6.620;2022-12-18T03:08:04;21.43;;;11.37;;
20170;SDS011;10245;51.344;6.620;2022-12-18T03:10:35;17.50;;;10.77;;
20170;SDS011;10245;51.344;6.620;2022-12-18T03:13:08;19.63;;;11.00;;
20170;SDS011;10245;51.344;6.620;2022-12-18T03:15:37;17.50;;;10.67;;
20170;SDS011;10245;51.344;6.620;2022-12-18T03:18:07;19.63;;;11.00;;
20170;SDS011;10245;51.344;6.620;2022-12-18T03:20:36;18.37;;;9.90;;
20170;SDS011;10245;51.344;6.620;2022-12-18T03:23:03;16.70;;;10.10;;
20170;SDS011;10245;51.344;6.620;2022-12-18T03:25:30;14.70;;;9.33;;
20170;SDS011;10245;51.344;6.620;2022-12-18T03:27:56;18.20;;;10.00;;
20170;SDS011;10245;51.344;6.620;2022-12-18T03:30:25;15.63;;;9.93;;
20170;SDS011;10245;51.344;6.620;2022-12-18T03:32:53;20.10;;;10.50;;
20170;SDS011;10245;51.344;6.620;2022-12-18T03:35:25;17.97;;;10.03;;
20170;SDS011;10245;51.344;6.620;2022-12-18T03:37:52;20.13;;;10.23;;
20170;SDS011;10245;51.344;6.620;2022-12-18T03:40:17;16.77;;;10.80;;
20170;SDS011;10245;51.344;6.620;2022-12-18T03:42:45;15.77;;;9.73;;
20170;SDS011;10245;51.344;6.620;2022-12-18T03:45:13;19.90;;;10.00;;
20170;SDS011;10245;51.344;6.620;2022-12-18T03:47:49;17.07;;;9.90;;
20170;SDS011;10245;51.344;6.620;2022-12-18T03:50:29;15.67;;;9.63;;
20170;SDS011;10245;51.344;6.620;2022-12-18T03:53:02;19.57;;;10.40;;
20170;SDS011;10245;51.344;6.620;2022-12-18T03:55:40;17.83;;;9.80;;
20170;SDS011;10245;51.344;6.620;2022-12-18T03:58:05;16.70;;;10.00;;
20170;SDS011;10245;51.344;6.620;2022-12-18T04:00:41;17.07;;;9.77;;
20170;SDS011;10245;51.344;6.620;2022-12-18T04:03:07;17.30;;;10.03;;
20170;SDS011;10245;51.344;6.620;2022-12-18T04:05:38;16.17;;;9.53;;
20170;SDS011;10245;51.344;6.620;2022-12-18T04:08:03;17.37;;;9.83;;
20170;SDS011;10245;51.344;6.620;2022-12-18T04:10:31;19.10;;;10.27;;
20170;SDS011;10245;51.344;6.620;2022-12-18T04:12:56;17.77;;;10.20;;
20170;SDS011;10245;51.344;6.620;2022-12-18T04:15:21;20.90;;;9.93;;
20170;SDS011;10245;51.344;6.620;2022-12-18T04:17:47;19.93;;;9.60;;
20170;SDS011;10245;51.344;6.620;2022-12-18T04:20:16;18.00;;;9.50;;
20170;SDS011;10245;51.344;6.620;2022-12-18T04:22:41;16.27;;;9.53;;
20170;SDS011;10245;51.344;6.620;2022-12-18T04:25:05;14.57;;;8.73;;
20170;SDS011;10245;51.344;6.620;2022-12-18T04:27:33;14.73;;;8.70;;
20170;SDS011;10245;51.344;6.620;2022-12-18T04:29:58;16.93;;;9.63;;
20170;SDS011;10245;51.344;6.620;2022-12-18T04:32:23;17.33;;;9.80;;
20170;SDS011;10245;51.344;6.620;2022-12-18T04:34:47;15.87;;;8.83;;
20170;SDS011;10245;51.344;6.620;2022-12-18T04:37:12;16.83;;;9.10;;
20170;SDS011;10245;51.344;6.620;2022-12-18T04:39:36;14.90;;;8.93;;
20170;SDS011;10245;51.344;6.620;2022-12-18T04:42:06;17.57;;;9.33;;
20170;SDS011;10245;51.344;6.620;2022-12-18T04:44:30;14.93;;;8.33;;
20170;SDS011;10245;51.344;6.620;2022-12-18T04:46:53;15.47;;;9.33;;
20170;SDS011;10245;51.344;6.620;2022-12-18T04:49:17;17.23;;;8.43;;
20170;SDS011;10245;51.344;6.620;2022-12-18T04:51:41;14.43;;;8.67;;
20170;SDS011;10245;51.344;6.620;2022-12-18T04:54:05;13.70;;;8.20;;
20170;SDS011;10245;51.344;6.620;2022-12-18T04:56:30;15.37;;;9.13;;
20170;SDS011;10245;51.344;6.620;2022-12-18T04:58:54;18.03;;;8.83;;
20170;SDS011;10245;51.344;6.620;2022-12-18T05:01:17;17.17;;;9.37;;
20170;SDS011;10245;51.344;6.620;2022-12-18T05:03:41;15.20;;;8.70;;
20170;SDS011;10245;51.344;6.620;2022-12-18T05:06:06;17.20;;;8.93;;
20170;SDS011;10245;51.344;6.620;2022-12-18T05:08:29;16.30;;;8.20;;
20170;SDS011;10245;51.344;6.620;2022-12-18T05:10:59;16.00;;;9.20;;
20170;SDS011;10245;51.344;6.620;2022-12-18T05:13:23;14.77;;;8.90;;
20170;SDS011;10245;51.344;6.620;2022-12-18T05:15:50;14.07;;;8.73;;
20170;SDS011;10245;51.344;6.620;2022-12-18T05:18:14;17.70;;;9.13;;
20170;SDS011;10245;51.344;6.620;2022-12-18T05:20:37;15.93;;;8.77;;
20170;SDS011;10245;51.344;6.620;2022-12-18T05:23:00;11.37;;;7.40;;
20170;SDS011;10245;51.344;6.620;2022-12-18T05:25:24;14.80;;;8.83;;
20170;SDS011;10245;51.344;6.620;2022-12-18T05:27:49;14.53;;;9.33;;
20170;SDS011;10245;51.344;6.620;2022-12-18T05:30:12;16.17;;;9.33;;
20170;SDS011;10245;51.344;6.620;2022-12-18T05:32:37;17.50;;;8.93;;
20170;SDS011;10245;51.344;6.620;2022-12-18T05:35:01;15.97;;;8.57;;
20170;SDS011;10245;51.344;6.620;2022-12-18T05:37:24;14.20;;;8.13;;
20170;SDS011;10245;51.344;6.620;2022-12-18T05:39:47;16.83;;;8.57;;
20170;SDS011;10245;51.344;6.620;2022-12-18T05:42:11;14.03;;;8.00;;
20170;SDS011;10245;51.344;6.620;2022-12-18T05:44:35;14.80;;;8.33;;
20170;SDS011;10245;51.344;6.620;2022-12-18T05:46:59;13.80;;;8.23;;
20170;SDS011;10245;51.344;6.620;2022-12-18T05:49:22;15.93;;;8.80;;
20170;SDS011;10245;51.344;6.620;2022-12-18T05:51:45;13.70;;;7.93;;
20170;SDS011;10245;51.344;6.620;2022-12-18T05:54:08;13.60;;;8.20;;
20170;SDS011;10245;51.344;6.620;2022-12-18T05:56:32;15.07;;;8.70;;
20170;SDS011;10245;51.344;6.620;2022-12-18T05:58:55;16.57;;;8.87;;
20170;SDS011;10245;51.344;6.620;2022-12-18T06:01:20;17.97;;;8.80;;
20170;SDS011;10245;51.344;6.620;2022-12-18T06:03:48;18.23;;;8.87;;
20170;SDS011;10245;51.344;6.620;2022-12-18T06:06:14;15.63;;;8.87;;
20170;SDS011;10245;51.344;6.620;2022-12-18T06:08:40;17.03;;;9.33;;
20170;SDS011;10245;51.344;6.620;2022-12-18T06:11:07;15.27;;;8.47;;
20170;SDS011;10245;51.344;6.620;2022-12-18T06:13:30;14.47;;;9.00;;
20170;SDS011;10245;51.344;6.620;2022-12-18T06:15:53;15.63;;;8.47;;
20170;SDS011;10245;51.344;6.620;2022-12-18T06:18:18;15.00;;;8.70;;
20170;SDS011;10245;51.344;6.620;2022-12-18T06:20:41;14.20;;;8.53;;
20170;SDS011;10245;51.344;6.620;2022-12-18T06:23:05;15.77;;;9.10;;
20170;SDS011;10245;51.344;6.620;2022-12-18T06:25:28;17.57;;;9.37;;
20170;SDS011;10245;51.344;6.620;2022-12-18T06:27:51;14.57;;;8.83;;
20170;SDS011;10245;51.344;6.620;2022-12-18T06:30:15;17.20;;;9.03;;
20170;SDS011;10245;51.344;6.620;2022-12-18T06:32:38;15.20;;;8.93;;
20170;SDS011;10245;51.344;6.620;2022-12-18T06:35:03;13.70;;;8.63;;
20170;SDS011;10245;51.344;6.620;2022-12-18T06:37:27;13.97;;;8.70;;
20170;SDS011;10245;51.344;6.620;2022-12-18T06:39:53;16.13;;;8.87;;
20170;SDS011;10245;51.344;6.620;2022-12-18T06:42:17;15.37;;;8.83;;
20170;SDS011;10245;51.344;6.620;2022-12-18T06:44:46;14.87;;;8.70;;
20170;SDS011;10245;51.344;6.620;2022-12-18T06:47:10;14.03;;;8.73;;
20170;SDS011;10245;51.344;6.620;2022-12-18T06:49:33;15.53;;;8.93;;
20170;SDS011;10245;51.344;6.620;2022-12-18T06:51:58;15.27;;;8.67;;
20170;SDS011;10245;51.344;6.620;2022-12-18T06:54:21;16.43;;;9.17;;
20170;SDS011;10245;51.344;6.620;2022-12-18T06:56:45;16.73;;;8.87;;
20170;SDS011;10245;51.344;6.620;2022-12-18T06:59:09;15.27;;;8.23;;
20170;SDS011;10245;51.344;6.620;2022-12-18T07:01:32;14.27;;;9.03;;
20170;SDS011;10245;51.344;6.620;2022-12-18T07:03:56;13.13;;;7.97;;
20170;SDS011;10245;51.344;6.620;2022-12-18T07:06:21;14.53;;;8.80;;
20170;SDS011;10245;51.344;6.620;2022-12-18T07:08:48;17.73;;;8.83;;
20170;SDS011;10245;51.344;6.620;2022-12-18T07:11:13;17.40;;;9.50;;
20170;SDS011;10245;51.344;6.620;2022-12-18T07:13:37;15.67;;;8.40;;
20170;SDS011;10245;51.344;6.620;2022-12-18T07:16:05;14.27;;;8.30;;
20170;SDS011;10245;51.344;6.620;2022-12-18T07:18:38;16.50;;;8.43;;
20170;SDS011;10245;51.344;6.620;2022-12-18T07:21:03;13.83;;;8.30;;
20170;SDS011;10245;51.344;6.620;2022-12-18T07:23:27;14.60;;;8.83;;
20170;SDS011;10245;51.344;6.620;2022-12-18T07:25:51;14.77;;;8.40;;
20170;SDS011;10245;51.344;6.620;2022-12-18T07:28:15;17.50;;;9.30;;
20170;SDS011;10245;51.344;6.620;2022-12-18T07:30:38;16.20;;;8.33;;
20170;SDS011;10245;51.344;6.620;2022-12-18T07:33:02;14.07;;;8.13;;
20170;SDS011;10245;51.344;6.620;2022-12-18T07:35:26;16.93;;;8.40;;
20170;SDS011;10245;51.344;6.620;2022-12-18T07:37:49;14.33;;;8.60;;
20170;SDS011;10245;51.344;6.620;2022-12-18T07:40:13;17.50;;;9.53;;
20170;SDS011;10245;51.344;6.620;2022-12-18T07:42:37;15.80;;;8.90;;
20170;SDS011;10245;51.344;6.620;2022-12-18T07:45:01;16.30;;;9.43;;
20170;SDS011;10245;51.344;6.620;2022-12-18T07:47:26;14.40;;;8.53;;
20170;SDS011;10245;51.344;6.620;2022-12-18T07:49:50;14.83;;;8.70;;
20170;SDS011;10245;51.344;6.620;2022-12-18T07:52:13;15.67;;;8.27;;
20170;SDS011;10245;51.344;6.620;2022-12-18T07:54:43;16.53;;;9.20;;
20170;SDS011;10245;51.344;6.620;2022-12-18T07:57:10;15.70;;;8.87;;
20170;SDS011;10245;51.344;6.620;2022-12-18T07:59:57;15.03;;;8.97;;
20170;SDS011;10245;51.344;6.620;2022-12-18T08:02:20;15.30;;;8.30;;
20170;SDS011;10245;51.344;6.620;2022-12-18T08:04:43;16.60;;;9.13;;
20170;SDS011;10245;51.344;6.620;2022-12-18T08:07:06;15.97;;;9.07;;
20170;SDS011;10245;51.344;6.620;2022-12-18T08:09:30;15.70;;;8.67;;
20170;SDS011;10245;51.344;6.620;2022-12-18T08:11:54;18.50;;;9.77;;
20170;SDS011;10245;51.344;6.620;2022-12-18T08:14:17;17.23;;;9.43;;
20170;SDS011;10245;51.344;6.620;2022-12-18T08:16:42;19.13;;;9.67;;
20170;SDS011;10245;51.344;6.620;2022-12-18T08:19:05;14.10;;;8.60;;
20170;SDS011;10245;51.344;6.620;2022-12-18T08:21:29;19.33;;;9.60;;
20170;SDS011;10245;51.344;6.620;2022-12-18T08:23:53;16.53;;;9.60;;
20170;SDS011;10245;51.344;6.620;2022-12-18T08:26:19;14.67;;;8.13;;
20170;SDS011;10245;51.344;6.620;2022-12-18T08:28:43;15.73;;;8.73;;
20170;SDS011;10245;51.344;6.620;2022-12-18T08:31:07;13.90;;;8.57;;
20170;SDS011;10245;51.344;6.620;2022-12-18T08:33:32;15.93;;;9.03;;
20170;SDS011;10245;51.344;6.620;2022-12-18T08:35:57;17.03;;;8.83;;
20170;SDS011;10245;51.344;6.620;2022-12-18T08:38:21;18.33;;;8.83;;
20170;SDS011;10245;51.344;6.620;2022-12-18T08:40:45;18.10;;;9.20;;
20170;SDS011;10245;51.344;6.620;2022-12-18T08:43:08;16.47;;;9.00;;
20170;SDS011;10245;51.344;6.620;2022-12-18T08:45:50;16.43;;;9.30;;
20170;SDS011;10245;51.344;6.620;2022-12-18T08:48:14;14.80;;;8.17;;
20170;SDS011;10245;51.344;6.620;2022-12-18T08:50:44;16.60;;;9.33;;
20170;SDS011;10245;51.344;6.620;2022-12-18T08:53:17;19.53;;;9.13;;
20170;SDS011;10245;51.344;6.620;2022-12-18T08:55:40;16.50;;;8.10;;
20170;SDS011;10245;51.344;6.620;2022-12-18T08:58:10;19.30;;;9.67;;
20170;SDS011;10245;51.344;6.620;2022-12-18T09:00:33;13.47;;;8.90;;
20170;SDS011;10245;51.344;6.620;2022-12-18T09:02:56;14.77;;;8.67;;
20170;SDS011;10245;51.344;6.620;2022-12-18T09:05:20;16.97;;;9.27;;
20170;SDS011;10245;51.344;6.620;2022-12-18T09:07:44;16.00;;;9.10;;
20170;SDS011;10245;51.344;6.620;2022-12-18T09:10:08;15.23;;;8.47;;
20170;SDS011;10245;51.344;6.620;2022-12-18T09:12:31;16.53;;;9.77;;
20170;SDS011;10245;51.344;6.620;2022-12-18T09:14:54;17.40;;;8.93;;
20170;SDS011;10245;51.344;6.620;2022-12-18T09:17:18;16.33;;;9.37;;
20170;SDS011;10245;51.344;6.620;2022-12-18T09:19:41;17.87;;;9.50;;
20170;SDS011;10245;51.344;6.620;2022-12-18T09:22:05;17.13;;;9.20;;
20170;SDS011;10245;51.344;6.620;2022-12-18T09:24:30;15.27;;;9.40;;
20170;SDS011;10245;51.344;6.620;2022-12-18T09:26:53;15.40;;;8.87;;
20170;SDS011;10245;51.344;6.620;2022-12-18T09:29:18;14.77;;;9.17;;
20170;SDS011;10245;51.344;6.620;2022-12-18T09:31:41;14.43;;;8.77;;
20170;SDS011;10245;51.344;6.620;2022-12-18T09:34:05;16.10;;;9.10;;
20170;SDS011;10245;51.344;6.620;2022-12-18T09:36:28;14.17;;;9.30;;
20170;SDS011;10245;51.344;6.620;2022-12-18T09:38:51;16.83;;;9.73;;
20170;SDS011;10245;51.344;6.620;2022-12-18T09:41:20;16.00;;;9.83;;
20170;SDS011;10245;51.344;6.620;2022-12-18T09:44:05;16.73;;;9.17;;
20170;SDS011;10245;51.344;6.620;2022-12-18T09:46:39;15.10;;;8.50;;
20170;SDS011;10245;51.344;6.620;2022-12-18T09:49:09;18.87;;;9.83;;
20170;SDS011;10245;51.344;6.620;2022-12-18T09:51:39;18.77;;;8.87;;
20170;SDS011;10245;51.344;6.620;2022-12-18T09:54:11;18.07;;;9.67;;
20170;SDS011;10245;51.344;6.620;2022-12-18T09:56:41;20.20;;;9.77;;
20170;SDS011;10245;51.344;6.620;2022-12-18T09:59:06;16.97;;;9.03;;
20170;SDS011;10245;51.344;6.620;2022-12-18T10:01:43;17.90;;;8.93;;
20170;SDS011;10245;51.344;6.620;2022-12-18T10:04:07;17.20;;;9.47;;
20170;SDS011;10245;51.344;6.620;2022-12-18T10:06:33;18.83;;;9.70;;
20170;SDS011;10245;51.344;6.620;2022-12-18T10:09:05;18.70;;;9.40;;
20170;SDS011;10245;51.344;6.620;2022-12-18T10:11:38;18.63;;;10.00;;
20170;SDS011;10245;51.344;6.620;2022-12-18T10:14:17;16.60;;;8.67;;
20170;SDS011;10245;51.344;6.620;2022-12-18T10:16:53;19.67;;;10.33;;
20170;SDS011;10245;51.344;6.620;2022-12-18T10:19:29;15.73;;;10.17;;
20170;SDS011;10245;51.344;6.620;2022-12-18T10:22:12;17.60;;;9.57;;
20170;SDS011;10245;51.344;6.620;2022-12-18T10:24:47;16.47;;;9.70;;
20170;SDS011;10245;51.344;6.620;2022-12-18T10:27:22;21.17;;;9.70;;
20170;SDS011;10245;51.344;6.620;2022-12-18T10:29:48;18.30;;;9.83;;
20170;SDS011;10245;51.344;6.620;2022-12-18T10:32:13;18.07;;;9.70;;
20170;SDS011;10245;51.344;6.620;2022-12-18T10:34:40;19.50;;;9.40;;
20170;SDS011;10245;51.344;6.620;2022-12-18T10:37:03;17.60;;;9.63;;
20170;SDS011;10245;51.344;6.620;2022-12-18T10:39:34;18.93;;;10.40;;
20170;SDS011;10245;51.344;6.620;2022-12-18T10:42:08;15.73;;;8.80;;
20170;SDS011;10245;51.344;6.620;2022-12-18T10:44:38;16.67;;;10.00;;
20170;SDS011;10245;51.344;6.620;2022-12-18T10:47:02;16.90;;;9.33;;
20170;SDS011;10245;51.344;6.620;2022-12-18T10:49:32;17.07;;;9.43;;
20170;SDS011;10245;51.344;6.620;2022-12-18T10:52:05;17.57;;;9.63;;
20170;SDS011;10245;51.344;6.620;2022-12-18T10:54:35;19.37;;;9.57;;
20170;SDS011;10245;51.344;6.620;2022-12-18T10:57:13;16.97;;;9.50;;
20170;SDS011;10245;51.344;6.620;2022-12-18T10:59:49;15.90;;;8.93;;
20170;SDS011;10245;51.344;6.620;2022-12-18T11:02:24;20.03;;;10.53;;
20170;SDS011;10245;51.344;6.620;2022-12-18T11:04:51;23.13;;;10.20;;
20170;SDS011;10245;51.344;6.620;2022-12-18T11:07:15;17.40;;;10.07;;
20170;SDS011;10245;51.344;6.620;2022-12-18T11:09:39;19.37;;;10.07;;
20170;SDS011;10245;51.344;6.620;2022-12-18T11:12:04;16.80;;;10.23;;
20170;SDS011;10245;51.344;6.620;2022-12-18T11:14:43;18.40;;;9.43;;
20170;SDS011;10245;51.344;6.620;2022-12-18T11:17:17;17.83;;;9.90;;
20170;SDS011;10245;51.344;6.620;2022-12-18T11:19:52;16.73;;;9.83;;
20170;SDS011;10245;51.344;6.620;2022-12-18T11:22:18;19.55;;;12.40;;
20170;SDS011;10245;51.344;6.620;2022-12-18T11:24:49;18.23;;;10.90;;
20170;SDS011;10245;51.344;6.620;2022-12-18T11:27:37;21.50;;;10.47;;
20170;SDS011;10245;51.344;6.620;2022-12-18T11:30:20;21.30;;;10.27;;
20170;SDS011;10245;51.344;6.620;2022-12-18T11:32:47;18.67;;;11.57;;
20170;SDS011;10245;51.344;6.620;2022-12-18T11:35:15;18.73;;;10.53;;
20170;SDS011;10245;51.344;6.620;2022-12-18T11:37:45;24.17;;;11.83;;
20170;SDS011;10245;51.344;6.620;2022-12-18T11:40:13;24.57;;;11.67;;
20170;SDS011;10245;51.344;6.620;2022-12-18T11:42:41;20.60;;;10.67;;
20170;SDS011;10245;51.344;6.620;2022-12-18T11:45:23;18.73;;;11.37;;
20170;SDS011;10245;51.344;6.620;2022-12-18T11:47:52;19.27;;;10.50;;
20170;SDS011;10245;51.344;6.620;2022-12-18T11:50:23;20.47;;;10.53;;
20170;SDS011;10245;51.344;6.620;2022-12-18T11:52:48;18.83;;;11.57;;
20170;SDS011;10245;51.344;6.620;2022-12-18T11:55:21;19.83;;;10.70;;
20170;SDS011;10245;51.344;6.620;2022-12-18T11:57:54;20.87;;;11.37;;
20170;SDS011;10245;51.344;6.620;2022-12-18T12:00:28;19.93;;;11.03;;
20170;SDS011;10245;51.344;6.620;2022-12-18T12:03:05;19.97;;;10.60;;
20170;SDS011;10245;51.344;6.620;2022-12-18T12:05:49;20.97;;;10.87;;
20170;SDS011;10245;51.344;6.620;2022-12-18T12:08:33;22.63;;;11.20;;
20170;SDS011;10245;51.344;6.620;2022-12-18T12:11:10;24.17;;;11.00;;
20170;SDS011;10245;51.344;6.620;2022-12-18T12:13:51;21.27;;;12.80;;
20170;SDS011;10245;51.344;6.620;2022-12-18T12:16:28;22.00;;;12.00;;
20170;SDS011;10245;51.344;6.620;2022-12-18T12:19:10;23.33;;;11.13;;
20170;SDS011;10245;51.344;6.620;2022-12-18T12:21:46;21.70;;;11.90;;
20170;SDS011;10245;51.344;6.620;2022-12-18T12:24:24;24.30;;;12.53;;
20170;SDS011;10245;51.344;6.620;2022-12-18T12:27:06;23.27;;;12.63;;
20170;SDS011;10245;51.344;6.620;2022-12-18T12:29:44;20.20;;;11.23;;
20170;SDS011;10245;51.344;6.620;2022-12-18T12:32:25;19.17;;;11.30;;
20170;SDS011;10245;51.344;6.620;2022-12-18T12:35:04;21.30;;;12.10;;
20170;SDS011;10245;51.344;6.620;2022-12-18T12:37:47;23.03;;;12.60;;
20170;SDS011;10245;51.344;6.620;2022-12-18T12:40:23;22.13;;;12.03;;
20170;SDS011;10245;51.344;6.620;2022-12-18T12:43:14;20.53;;;12.43;;
20170;SDS011;10245;51.344;6.620;2022-12-18T12:45:47;21.73;;;12.43;;
20170;SDS011;10245;51.344;6.620;2022-12-18T12:48:17;24.40;;;12.80;;
20170;SDS011;10245;51.344;6.620;2022-12-18T12:50:51;23.93;;;12.37;;
20170;SDS011;10245;51.344;6.620;2022-12-18T12:53:19;20.10;;;12.13;;
20170;SDS011;10245;51.344;6.620;2022-12-18T12:55:49;20.00;;;12.03;;
20170;SDS011;10245;51.344;6.620;2022-12-18T12:58:16;24.17;;;13.23;;
20170;SDS011;10245;51.344;6.620;2022-12-18T13:00:46;23.70;;;12.93;;
20170;SDS011;10245;51.344;6.620;2022-12-18T13:03:22;22.40;;;13.03;;
20170;SDS011;10245;51.344;6.620;2022-12-18T13:05:54;22.33;;;12.73;;
20170;SDS011;10245;51.344;6.620;2022-12-18T13:08:24;24.30;;;12.80;;
20170;SDS011;10245;51.344;6.620;2022-12-18T13:10:54;23.67;;;13.40;;
20170;SDS011;10245;51.344;6.620;2022-12-18T13:13:47;28.07;;;13.47;;
20170;SDS011;10245;51.344;6.620;2022-12-18T13:16:13;27.93;;;13.80;;
20170;SDS011;10245;51.344;6.620;2022-12-18T13:18:48;25.10;;;14.03;;
20170;SDS011;10245;51.344;6.620;2022-12-18T13:21:15;22.50;;;13.03;;
20170;SDS011;10245;51.344;6.620;2022-12-18T13:23:45;25.40;;;13.10;;
20170;SDS011;10245;51.344;6.620;2022-12-18T13:28:54;23.20;;;13.10;;
20170;SDS011;10245;51.344;6.620;2022-12-18T13:34:44;25.40;;;13.33;;
20170;SDS011;10245;51.344;6.620;2022-12-18T13:40:06;24.57;;;13.80;;
20170;SDS011;10245;51.344;6.620;2022-12-18T13:43:23;24.60;;;13.63;;
20170;SDS011;10245;51.344;6.620;2022-12-18T13:46:04;28.47;;;14.83;;
20170;SDS011;10245;51.344;6.620;2022-12-18T13:48:40;26.67;;;13.30;;
20170;SDS011;10245;51.344;6.620;2022-12-18T13:51:17;25.37;;;13.90;;
20170;SDS011;10245;51.344;6.620;2022-12-18T13:53:43;27.17;;;14.87;;
20170;SDS011;10245;51.344;6.620;2022-12-18T13:56:15;26.87;;;14.60;;
20170;SDS011;10245;51.344;6.620;2022-12-18T13:59:05;26.40;;;15.20;;
20170;SDS011;10245;51.344;6.620;2022-12-18T14:01:41;27.10;;;14.47;;
20170;SDS011;10245;51.344;6.620;2022-12-18T14:04:11;25.17;;;14.63;;
20170;SDS011;10245;51.344;6.620;2022-12-18T14:06:46;26.30;;;14.70;;
20170;SDS011;10245;51.344;6.620;2022-12-18T14:09:13;25.80;;;14.50;;
20170;SDS011;10245;51.344;6.620;2022-12-18T14:11:45;24.10;;;15.23;;
20170;SDS011;10245;51.344;6.620;2022-12-18T14:14:13;27.80;;;15.10;;
20170;SDS011;10245;51.344;6.620;2022-12-18T14:16:37;28.60;;;15.67;;
20170;SDS011;10245;51.344;6.620;2022-12-18T14:19:04;31.40;;;15.97;;
20170;SDS011;10245;51.344;6.620;2022-12-18T14:21:36;28.87;;;15.77;;
20170;SDS011;10245;51.344;6.620;2022-12-18T14:24:12;24.47;;;14.47;;
20170;SDS011;10245;51.344;6.620;2022-12-18T14:26:40;23.83;;;14.37;;
20170;SDS011;10245;51.344;6.620;2022-12-18T14:29:17;28.73;;;15.57;;
20170;SDS011;10245;51.344;6.620;2022-12-18T14:31:45;27.03;;;15.27;;
20170;SDS011;10245;51.344;6.620;2022-12-18T14:34:14;24.30;;;15.50;;
20170;SDS011;10245;51.344;6.620;2022-12-18T14:36:38;27.60;;;14.87;;
20170;SDS011;10245;51.344;6.620;2022-12-18T14:39:02;28.33;;;15.07;;
20170;SDS011;10245;51.344;6.620;2022-12-18T14:41:27;29.37;;;16.90;;
20170;SDS011;10245;51.344;6.620;2022-12-18T14:43:51;25.00;;;14.83;;